createdAt,value
2023-04-28T00:00:29.418Z,8.87
2023-04-28T00:02:57.193Z,8.89
2023-04-28T00:05:25.257Z,8.85
2023-04-28T00:07:52.720Z,8.66
2023-04-28T00:10:20.667Z,8.74
2023-04-28T00:12:48.445Z,8.64
2023-04-28T00:15:16.128Z,8.64
2023-04-28T00:17:44.317Z,8.47
2023-04-28T00:20:12.463Z,8.71
2023-04-28T00:22:40.094Z,8.51
2023-04-28T00:25:08.637Z,8.59
2023-04-28T00:27:36.532Z,8.59
2023-04-28T00:30:04.437Z,8.59
2023-04-28T00:32:33.973Z,8.76
2023-04-28T00:35:01.429Z,8.54
2023-04-28T00:37:28.813Z,8.48
2023-04-28T00:39:59.284Z,8.56
2023-04-28T00:42:35.825Z,8.76
2023-04-28T00:45:06.555Z,8.66
2023-04-28T00:47:35.068Z,8.58
2023-04-28T00:50:06.565Z,8.44
2023-04-28T00:52:34.316Z,8.72
2023-04-28T00:55:02.303Z,8.62
2023-04-28T00:57:31.209Z,8.51
2023-04-28T01:00:01.021Z,8.69
2023-04-28T01:02:30.148Z,8.53
2023-04-28T01:04:58.410Z,8.58
2023-04-28T01:07:25.924Z,8.43
2023-04-28T01:09:53.438Z,8.41
2023-04-28T01:12:21.561Z,8.49
2023-04-28T01:14:50.031Z,8.45
2023-04-28T01:17:17.837Z,8.50
2023-04-28T01:19:45.457Z,8.51
2023-04-28T01:22:15.431Z,8.36
2023-04-28T01:24:43.300Z,8.38
2023-04-28T01:27:11.724Z,8.39
2023-04-28T01:29:39.594Z,8.20
2023-04-28T01:32:07.763Z,8.25
2023-04-28T01:34:35.600Z,8.22
2023-04-28T01:37:05.816Z,8.12
2023-04-28T01:39:33.435Z,8.11
2023-04-28T01:42:02.268Z,8.13
2023-04-28T01:44:29.693Z,7.94
2023-04-28T01:46:57.545Z,7.86
2023-04-28T01:49:25.309Z,7.89
2023-04-28T01:51:52.836Z,7.75
2023-04-28T01:54:21.042Z,7.72
2023-04-28T01:56:50.263Z,7.66
2023-04-28T01:59:20.492Z,7.86
2023-04-28T02:01:47.997Z,7.85
2023-04-28T02:04:18.325Z,7.85
2023-04-28T02:06:46.044Z,7.76
2023-04-28T02:09:13.565Z,7.85
2023-04-28T02:11:41.241Z,7.88
2023-04-28T02:14:08.630Z,7.83
2023-04-28T02:16:36.153Z,8.18
2023-04-28T02:19:03.820Z,7.84
2023-04-28T02:21:31.897Z,7.85
2023-04-28T02:23:59.617Z,7.73
2023-04-28T02:26:28.690Z,7.79
2023-04-28T02:28:56.388Z,7.72
2023-04-28T02:31:23.831Z,7.83
2023-04-28T02:33:54.503Z,7.81
2023-04-28T02:36:23.822Z,7.77
2023-04-28T02:38:51.197Z,7.84
2023-04-28T02:41:18.608Z,7.71
2023-04-28T02:43:46.378Z,7.76
2023-04-28T02:46:13.906Z,7.68
2023-04-28T02:48:42.642Z,7.73
2023-04-28T02:51:14.213Z,7.67
2023-04-28T02:53:41.967Z,7.66
2023-04-28T02:56:11.168Z,7.57
2023-04-28T02:58:38.604Z,7.55
2023-04-28T03:01:07.658Z,7.61
2023-04-28T03:03:35.669Z,7.65
2023-04-28T03:06:03.285Z,7.56
2023-04-28T03:08:30.687Z,7.58
2023-04-28T03:10:58.414Z,7.52
2023-04-28T03:13:25.942Z,7.54
2023-04-28T03:15:53.593Z,7.53
2023-04-28T03:18:22.540Z,7.45
2023-04-28T03:20:50.645Z,7.45
2023-04-28T03:23:18.091Z,7.52
2023-04-28T03:25:45.721Z,7.50
2023-04-28T03:28:13.167Z,7.42
2023-04-28T03:30:40.924Z,7.58
2023-04-28T03:33:08.584Z,7.49
2023-04-28T03:35:36.126Z,7.48
2023-04-28T03:38:03.590Z,7.61
2023-04-28T03:40:32.526Z,7.49
2023-04-28T03:43:04.772Z,7.48
2023-04-28T03:45:33.425Z,7.53
2023-04-28T03:48:01.942Z,7.67
2023-04-28T03:50:29.571Z,7.73
2023-04-28T03:52:57.641Z,7.71
2023-04-28T03:55:26.213Z,7.76
2023-04-28T03:57:53.721Z,7.76
2023-04-28T04:00:21.383Z,7.70
2023-04-28T04:02:49.182Z,8.03
2023-04-28T04:05:17.046Z,8.02
2023-04-28T04:07:44.748Z,8.08
2023-04-28T04:10:12.397Z,8.11
2023-04-28T04:12:40.636Z,8.23
2023-04-28T04:15:08.832Z,8.35
2023-04-28T04:17:36.978Z,8.34
2023-04-28T04:20:04.769Z,8.45
2023-04-28T04:22:32.163Z,8.48
2023-04-28T04:24:59.822Z,8.73
2023-04-28T04:27:27.237Z,9.41
2023-04-28T04:29:54.800Z,9.45
2023-04-28T04:32:23.023Z,9.84
2023-04-28T04:34:50.493Z,10.50
2023-04-28T04:37:19.342Z,10.64
2023-04-28T04:39:47.363Z,10.99
2023-04-28T04:42:24.683Z,11.11
2023-04-28T04:44:54.036Z,11.60
2023-04-28T04:47:22.904Z,12.10
2023-04-28T04:49:51.272Z,12.35
2023-04-28T04:52:19.058Z,12.77
2023-04-28T04:54:46.500Z,12.95
2023-04-28T04:57:14.446Z,12.91
2023-04-28T04:59:44.153Z,12.77
2023-04-28T05:02:12.518Z,12.97
2023-04-28T05:04:40.574Z,12.93
2023-04-28T05:07:08.614Z,12.98
2023-04-28T05:09:39.246Z,13.07
2023-04-28T05:12:06.890Z,12.90
2023-04-28T05:14:34.975Z,12.57
2023-04-28T05:17:02.901Z,12.74
2023-04-28T05:19:31.977Z,12.39
2023-04-28T05:22:00.977Z,12.65
2023-04-28T05:24:30.632Z,13.35
2023-04-28T05:26:59.050Z,13.53
2023-04-28T05:29:26.812Z,13.02
2023-04-28T05:31:54.353Z,12.79
2023-04-28T05:34:22.753Z,12.46
2023-04-28T05:36:51.983Z,12.09
2023-04-28T05:39:19.880Z,12.49
2023-04-28T05:41:47.278Z,12.51
2023-04-28T05:44:15.303Z,12.82
2023-04-28T05:46:42.884Z,12.42
2023-04-28T05:49:11.162Z,12.16
2023-04-28T05:51:39.846Z,11.64
2023-04-28T05:54:07.387Z,11.94
2023-04-28T05:56:36.031Z,12.15
2023-04-28T05:59:04.634Z,12.27
2023-04-28T06:01:32.301Z,12.52
2023-04-28T06:04:00.171Z,12.27
2023-04-28T06:06:28.037Z,12.41
2023-04-28T06:08:55.512Z,11.98
2023-04-28T06:11:23.282Z,12.17
2023-04-28T06:13:51.243Z,11.71
2023-04-28T06:16:19.126Z,11.94
2023-04-28T06:18:49.206Z,11.74
2023-04-28T06:21:17.544Z,12.01
2023-04-28T06:23:44.930Z,11.81
2023-04-28T06:26:13.155Z,11.96
2023-04-28T06:28:40.839Z,12.11
2023-04-28T06:31:09.077Z,12.24
2023-04-28T06:33:36.769Z,12.48
2023-04-28T06:36:04.350Z,12.39
2023-04-28T06:38:31.873Z,12.57
2023-04-28T06:40:59.901Z,12.31
2023-04-28T06:43:27.648Z,12.44
2023-04-28T06:45:57.676Z,12.38
2023-04-28T06:48:26.229Z,12.14
2023-04-28T06:50:53.638Z,12.34
2023-04-28T06:53:23.018Z,12.49
2023-04-28T06:55:50.757Z,12.44
2023-04-28T06:58:18.195Z,12.30
2023-04-28T07:00:45.867Z,12.65
2023-04-28T07:03:13.627Z,12.97
2023-04-28T07:05:41.143Z,13.02
2023-04-28T07:08:08.526Z,13.14
2023-04-28T07:10:36.342Z,13.12
2023-04-28T07:13:03.716Z,13.12
2023-04-28T07:15:31.995Z,13.29
2023-04-28T07:17:59.945Z,13.00
2023-04-28T07:20:27.812Z,13.33
2023-04-28T07:22:55.244Z,13.73
2023-04-28T07:25:23.452Z,13.58
2023-04-28T07:27:50.927Z,13.25
2023-04-28T07:30:27.285Z,13.39
2023-04-28T07:32:56.706Z,13.60
2023-04-28T07:35:24.430Z,13.49
2023-04-28T07:37:52.475Z,13.49
2023-04-28T07:40:20.486Z,13.57
2023-04-28T07:42:48.028Z,14.16
2023-04-28T07:45:16.279Z,13.73
2023-04-28T07:47:44.036Z,13.70
2023-04-28T07:50:12.097Z,13.93
2023-04-28T07:52:39.753Z,14.26
2023-04-28T07:55:07.741Z,14.40
2023-04-28T07:57:35.860Z,14.03
2023-04-28T08:00:03.812Z,14.28
2023-04-28T08:02:39.084Z,14.13
2023-04-28T08:05:09.280Z,14.33
2023-04-28T08:07:37.314Z,14.61
2023-04-28T08:10:05.306Z,14.21
2023-04-28T08:12:33.026Z,14.16
2023-04-28T08:15:00.624Z,14.12
2023-04-28T08:17:28.112Z,14.47
2023-04-28T08:19:55.831Z,14.67
2023-04-28T08:22:23.203Z,13.97
2023-04-28T08:24:50.609Z,14.16
2023-04-28T08:27:18.493Z,14.44
2023-04-28T08:29:45.890Z,14.62
2023-04-28T08:32:13.301Z,14.58
2023-04-28T08:34:40.921Z,15.06
2023-04-28T08:37:08.331Z,15.25
2023-04-28T08:39:35.774Z,15.34
2023-04-28T08:42:07.327Z,15.23
2023-04-28T08:44:39.190Z,15.27
2023-04-28T08:47:13.210Z,15.39
2023-04-28T08:49:41.296Z,14.84
2023-04-28T08:52:13.645Z,15.30
2023-04-28T08:54:41.672Z,15.25
2023-04-28T08:57:10.312Z,15.37
2023-04-28T08:59:41.655Z,15.72
2023-04-28T09:02:09.517Z,15.56
2023-04-28T09:04:37.314Z,14.99
2023-04-28T09:07:11.176Z,15.48
2023-04-28T09:09:41.149Z,15.24
2023-04-28T09:12:09.170Z,15.58
2023-04-28T09:14:37.906Z,15.12
2023-04-28T09:17:13.305Z,15.49
2023-04-28T09:19:43.559Z,16.00
2023-04-28T09:22:25.531Z,15.81
2023-04-28T09:24:55.390Z,15.80
2023-04-28T09:27:28.238Z,16.05
2023-04-28T09:29:55.816Z,16.13
2023-04-28T09:32:24.797Z,15.99
2023-04-28T09:34:56.825Z,16.32
2023-04-28T09:37:27.299Z,16.63
2023-04-28T09:39:55.434Z,16.95
2023-04-28T09:42:42.664Z,17.44
2023-04-28T09:45:12.045Z,17.47
2023-04-28T09:47:46.924Z,17.61
2023-04-28T09:50:17.492Z,17.71
2023-04-28T09:52:56.678Z,18.03
2023-04-28T09:55:24.944Z,18.18
2023-04-28T09:57:54.912Z,17.63
2023-04-28T10:00:23.029Z,17.64
2023-04-28T10:02:51.979Z,17.36
2023-04-28T10:05:20.192Z,16.83
2023-04-28T10:07:47.885Z,17.30
2023-04-28T10:10:15.672Z,16.95
2023-04-28T10:12:44.148Z,17.31
2023-04-28T10:15:13.337Z,16.64
2023-04-28T10:17:41.121Z,16.75
2023-04-28T10:20:09.078Z,16.89
2023-04-28T10:23:06.758Z,17.12
2023-04-28T10:25:37.032Z,17.37
2023-04-28T10:28:08.811Z,17.88
2023-04-28T10:30:38.442Z,18.11
2023-04-28T10:33:09.383Z,17.88
2023-04-28T10:35:47.554Z,18.24
2023-04-28T10:38:16.711Z,17.62
2023-04-28T10:40:45.032Z,17.87
2023-04-28T10:43:13.812Z,18.08
2023-04-28T10:45:56.804Z,17.97
2023-04-28T10:48:46.805Z,17.85
2023-04-28T10:51:22.616Z,17.44
2023-04-28T10:53:52.425Z,17.44
2023-04-28T10:56:27.844Z,17.56
2023-04-28T10:58:59.260Z,17.21
2023-04-28T11:01:34.888Z,16.85
2023-04-28T11:04:16.080Z,16.78
2023-04-28T11:06:46.022Z,17.22
2023-04-28T11:09:22.521Z,17.83
2023-04-28T11:12:02.229Z,17.88
2023-04-28T11:14:33.253Z,17.88
2023-04-28T11:17:03.120Z,17.70
2023-04-28T11:19:33.320Z,18.09
2023-04-28T11:22:02.925Z,18.05
2023-04-28T11:24:32.348Z,18.19
2023-04-28T11:27:00.678Z,17.91
2023-04-28T11:29:31.846Z,17.88
2023-04-28T11:32:00.001Z,17.71
2023-04-28T11:34:27.523Z,17.79
2023-04-28T11:36:55.192Z,17.80
2023-04-28T11:39:30.652Z,17.20
2023-04-28T11:42:02.962Z,16.87
2023-04-28T11:44:31.301Z,17.28
2023-04-28T11:47:01.775Z,17.38
2023-04-28T11:49:42.671Z,17.49
2023-04-28T11:52:10.871Z,17.30
2023-04-28T11:54:38.839Z,17.69
2023-04-28T11:57:06.747Z,17.73
2023-04-28T11:59:35.777Z,17.38
2023-04-28T12:02:06.858Z,17.26
2023-04-28T12:04:36.704Z,17.41
2023-04-28T12:07:15.737Z,17.32
2023-04-28T12:09:48.857Z,17.75
2023-04-28T12:12:40.028Z,17.81
2023-04-28T12:15:13.395Z,18.17
2023-04-28T12:17:42.326Z,17.98
2023-04-28T12:20:18.142Z,17.63
2023-04-28T12:22:47.905Z,17.96
2023-04-28T12:25:17.924Z,18.16
2023-04-28T12:28:10.724Z,17.75
2023-04-28T12:30:41.747Z,17.21
2023-04-28T12:33:27.634Z,16.96
2023-04-28T12:35:57.053Z,17.66
2023-04-28T12:38:25.527Z,18.10
2023-04-28T12:40:53.288Z,18.32
2023-04-28T12:43:23.314Z,18.04
2023-04-28T12:45:53.333Z,17.89
2023-04-28T12:48:22.386Z,17.84
2023-04-28T12:50:49.821Z,17.68
2023-04-28T12:53:17.481Z,17.55
2023-04-28T12:55:44.897Z,17.48
2023-04-28T12:58:12.475Z,17.81
2023-04-28T13:00:41.822Z,17.86
2023-04-28T13:03:10.208Z,17.84
2023-04-28T13:05:37.686Z,17.78
2023-04-28T13:08:05.592Z,18.58
2023-04-28T13:10:33.024Z,18.35
2023-04-28T13:13:00.395Z,18.53
2023-04-28T13:15:28.071Z,18.09
2023-04-28T13:17:55.457Z,17.92
2023-04-28T13:20:23.044Z,17.28
2023-04-28T13:22:50.702Z,17.35
2023-04-28T13:25:18.078Z,18.04
2023-04-28T13:27:46.053Z,18.46
2023-04-28T13:30:13.856Z,18.34
2023-04-28T13:32:41.461Z,18.09
2023-04-28T13:35:09.561Z,18.26
2023-04-28T13:37:42.562Z,18.59
2023-04-28T13:40:10.662Z,18.67
2023-04-28T13:42:38.385Z,18.89
2023-04-28T13:45:06.203Z,19.01
2023-04-28T13:47:33.694Z,19.06
2023-04-28T13:50:01.336Z,18.94
2023-04-28T13:52:28.759Z,18.99
2023-04-28T13:54:56.244Z,19.20
2023-04-28T13:57:24.051Z,18.60
2023-04-28T13:59:51.450Z,19.08
2023-04-28T14:02:19.137Z,19.00
2023-04-28T14:04:49.349Z,18.68
2023-04-28T14:07:17.077Z,19.01
2023-04-28T14:09:44.626Z,18.60
2023-04-28T14:12:13.845Z,18.91
2023-04-28T14:14:41.621Z,18.89
2023-04-28T14:17:10.125Z,18.94
2023-04-28T14:19:37.783Z,19.13
2023-04-28T14:22:05.306Z,18.82
2023-04-28T14:24:32.939Z,18.99
2023-04-28T14:27:00.547Z,18.74
2023-04-28T14:29:27.928Z,18.75
2023-04-28T14:31:55.335Z,18.35
2023-04-28T14:34:24.327Z,18.77
2023-04-28T14:36:51.762Z,18.53
2023-04-28T14:39:19.129Z,18.59
2023-04-28T14:41:48.812Z,18.61
2023-04-28T14:44:16.598Z,18.59
2023-04-28T14:46:44.089Z,18.79
2023-04-28T14:49:11.856Z,18.47
2023-04-28T14:51:39.225Z,18.37
2023-04-28T14:54:06.672Z,18.46
2023-04-28T14:56:34.412Z,18.72
2023-04-28T14:59:01.815Z,18.97
2023-04-28T15:01:30.544Z,18.63
2023-04-28T15:03:58.675Z,18.30
2023-04-28T15:06:26.849Z,18.68
2023-04-28T15:08:54.238Z,18.83
2023-04-28T15:11:22.059Z,18.92
2023-04-28T15:13:49.459Z,18.66
2023-04-28T15:16:16.981Z,18.64
2023-04-28T15:18:46.019Z,18.53
2023-04-28T15:21:13.492Z,18.67
2023-04-28T15:23:40.986Z,18.95
2023-04-28T15:26:10.856Z,18.74
2023-04-28T15:28:38.323Z,18.84
2023-04-28T15:31:06.210Z,18.82
2023-04-28T15:33:34.047Z,18.84
2023-04-28T15:36:01.652Z,18.46
2023-04-28T15:38:31.305Z,18.62
2023-04-28T15:40:58.945Z,18.50
2023-04-28T15:43:26.329Z,18.11
2023-04-28T15:45:53.892Z,18.30
2023-04-28T15:48:23.211Z,18.34
2023-04-28T15:50:50.624Z,18.47
2023-04-28T15:53:18.527Z,18.54
2023-04-28T15:55:46.228Z,18.70
2023-04-28T15:58:13.663Z,18.77
2023-04-28T16:00:42.567Z,18.73
2023-04-28T16:03:10.429Z,18.55
2023-04-28T16:05:38.593Z,18.61
2023-04-28T16:08:06.120Z,18.44
2023-04-28T16:10:33.909Z,18.36
2023-04-28T16:13:01.507Z,18.58
2023-04-28T16:15:29.254Z,18.51
2023-04-28T16:17:58.746Z,18.30
2023-04-28T16:20:26.153Z,18.22
2023-04-28T16:22:53.772Z,18.32
2023-04-28T16:25:21.705Z,18.43
2023-04-28T16:27:49.337Z,18.18
2023-04-28T16:30:17.874Z,18.36
2023-04-28T16:32:45.726Z,18.44
2023-04-28T16:35:15.223Z,18.47
2023-04-28T16:37:43.534Z,17.90
2023-04-28T16:40:13.388Z,17.94
2023-04-28T16:42:42.314Z,17.98
2023-04-28T16:45:10.770Z,18.15
2023-04-28T16:47:42.581Z,17.96
2023-04-28T16:50:11.377Z,17.94
2023-04-28T16:52:39.102Z,17.98
2023-04-28T16:55:07.107Z,18.16
2023-04-28T16:57:34.468Z,17.85
2023-04-28T17:00:02.506Z,17.99
2023-04-28T17:02:30.077Z,17.35
2023-04-28T17:04:57.724Z,17.82
2023-04-28T17:07:26.042Z,17.81
2023-04-28T17:09:53.727Z,17.83
2023-04-28T17:12:23.204Z,17.80
2023-04-28T17:14:51.189Z,17.49
2023-04-28T17:17:18.652Z,17.23
2023-04-28T17:19:46.051Z,17.31
2023-04-28T17:22:13.768Z,17.17
2023-04-28T17:24:41.164Z,17.15
2023-04-28T17:27:09.431Z,17.11
2023-04-28T17:29:37.076Z,17.17
2023-04-28T17:32:04.626Z,16.90
2023-04-28T17:34:31.996Z,17.20
2023-04-28T17:36:59.753Z,17.00
2023-04-28T17:39:27.290Z,17.11
2023-04-28T17:41:55.627Z,17.25
2023-04-28T17:44:23.336Z,17.26
2023-04-28T17:46:50.870Z,17.34
2023-04-28T17:49:18.825Z,17.39
2023-04-28T17:51:49.318Z,17.43
2023-04-28T17:54:17.085Z,17.27
2023-04-28T17:56:44.474Z,17.33
2023-04-28T17:59:14.589Z,17.16
2023-04-28T18:01:42.251Z,17.32
2023-04-28T18:04:11.125Z,17.16
2023-04-28T18:06:38.783Z,17.17
2023-04-28T18:09:06.969Z,17.19
2023-04-28T18:11:34.800Z,17.33
2023-04-28T18:14:03.241Z,17.35
2023-04-28T18:16:31.133Z,17.17
2023-04-28T18:18:59.497Z,17.08
2023-04-28T18:21:28.170Z,17.01
2023-04-28T18:23:55.860Z,16.93
2023-04-28T18:26:24.616Z,16.89
2023-04-28T18:28:53.092Z,16.71
2023-04-28T18:31:20.795Z,16.72
2023-04-28T18:33:49.203Z,16.56
2023-04-28T18:36:17.513Z,16.57
2023-04-28T18:38:47.071Z,16.59
2023-04-28T18:41:18.328Z,16.39
2023-04-28T18:43:46.057Z,16.39
2023-04-28T18:46:14.088Z,16.33
2023-04-28T18:48:42.771Z,16.31
2023-04-28T18:51:10.742Z,16.37
2023-04-28T18:53:38.659Z,16.25
2023-04-28T18:56:08.972Z,16.09
2023-04-28T18:58:41.465Z,16.20
2023-04-28T19:01:19.959Z,16.07
2023-04-28T19:03:47.534Z,16.12
2023-04-28T19:06:16.647Z,16.14
2023-04-28T19:08:44.900Z,16.15
2023-04-28T19:11:12.774Z,15.93
2023-04-28T19:13:45.606Z,15.91
2023-04-28T19:16:14.621Z,15.89
2023-04-28T19:18:44.482Z,15.77
2023-04-28T19:21:13.953Z,15.76
2023-04-28T19:23:42.031Z,15.73
2023-04-28T19:26:10.139Z,15.47
2023-04-28T19:28:38.646Z,15.50
2023-04-28T19:31:06.905Z,15.32
2023-04-28T19:33:35.490Z,15.27
2023-04-28T19:36:05.854Z,15.35
2023-04-28T19:38:36.088Z,15.45
2023-04-28T19:41:04.479Z,15.33
2023-04-28T19:43:32.671Z,15.32
2023-04-28T19:46:02.439Z,15.21
2023-04-28T19:48:31.413Z,15.39
2023-04-28T19:51:01.479Z,15.14
2023-04-28T19:53:30.175Z,15.16
2023-04-28T19:56:01.161Z,14.95
2023-04-28T19:58:30.139Z,14.95
2023-04-28T20:01:01.626Z,15.17
2023-04-28T20:03:30.240Z,14.80
2023-04-28T20:05:58.442Z,14.96
2023-04-28T20:08:28.847Z,14.98
2023-04-28T20:10:57.656Z,14.74
2023-04-28T20:13:27.249Z,14.68
2023-04-28T20:15:56.153Z,14.60
2023-04-28T20:18:24.565Z,14.79
2023-04-28T20:20:53.921Z,14.41
2023-04-28T20:23:21.689Z,14.57
2023-04-28T20:25:50.553Z,14.51
2023-04-28T20:28:19.053Z,14.57
2023-04-28T20:30:47.084Z,14.63
2023-04-28T20:33:18.925Z,14.45
2023-04-28T20:35:46.757Z,14.42
2023-04-28T20:38:14.645Z,14.30
2023-04-28T20:40:42.015Z,14.23
2023-04-28T20:43:09.857Z,14.42
2023-04-28T20:45:37.949Z,14.47
2023-04-28T20:48:05.618Z,14.51
2023-04-28T20:50:38.489Z,14.58
2023-04-28T20:53:06.319Z,14.76
2023-04-28T20:55:33.761Z,14.56
2023-04-28T20:58:01.215Z,14.60
2023-04-28T21:00:28.957Z,14.52
2023-04-28T21:02:56.480Z,14.60
2023-04-28T21:05:24.114Z,14.70
2023-04-28T21:07:52.047Z,14.62
2023-04-28T21:10:23.356Z,14.51
2023-04-28T21:12:50.947Z,14.51
2023-04-28T21:15:18.645Z,14.59
2023-04-28T21:17:46.463Z,14.60
2023-04-28T21:20:14.752Z,14.42
2023-04-28T21:22:48.104Z,14.55
2023-04-28T21:25:16.668Z,14.40
2023-04-28T21:27:45.297Z,14.52
2023-04-28T21:30:14.702Z,14.62
2023-04-28T21:32:42.200Z,14.66
2023-04-28T21:35:10.915Z,14.59
2023-04-28T21:37:38.750Z,14.50
2023-04-28T21:40:06.870Z,14.67
2023-04-28T21:42:35.074Z,14.74
2023-04-28T21:45:02.518Z,14.82
2023-04-28T21:47:30.284Z,14.57
2023-04-28T21:49:57.987Z,14.84
2023-04-28T21:52:25.355Z,14.60
2023-04-28T21:54:52.816Z,14.66
2023-04-28T21:57:20.516Z,14.75
2023-04-28T21:59:50.218Z,14.64
2023-04-28T22:02:18.219Z,14.36
2023-04-28T22:04:46.012Z,14.56
2023-04-28T22:07:13.988Z,14.54
2023-04-28T22:09:41.528Z,14.51
2023-04-28T22:12:09.223Z,14.53
2023-04-28T22:14:41.021Z,14.65
2023-04-28T22:17:11.632Z,14.86
2023-04-28T22:19:39.193Z,14.71
2023-04-28T22:22:08.759Z,13.66
2023-04-28T22:24:38.088Z,13.66
2023-04-28T22:27:05.430Z,13.96
2023-04-28T22:29:32.862Z,14.28
2023-04-28T22:32:00.589Z,14.09
2023-04-28T22:34:28.127Z,13.91
2023-04-28T22:36:55.574Z,14.28
2023-04-28T22:39:25.212Z,14.24
2023-04-28T22:41:52.779Z,13.89
2023-04-28T22:44:20.162Z,13.75
2023-04-28T22:46:47.912Z,13.82
2023-04-28T22:49:15.454Z,13.76
2023-04-28T22:51:42.958Z,13.91
2023-04-28T22:54:10.845Z,13.87
2023-04-28T22:56:38.190Z,14.08
2023-04-28T22:59:05.653Z,14.17
2023-04-28T23:01:33.409Z,14.15
2023-04-28T23:04:01.015Z,14.12
2023-04-28T23:06:32.170Z,13.99
2023-04-28T23:08:59.896Z,13.87
2023-04-28T23:11:27.474Z,13.96
2023-04-28T23:13:54.834Z,13.98
2023-04-28T23:16:23.018Z,13.65
2023-04-28T23:18:50.545Z,13.90
2023-04-28T23:21:17.922Z,13.76
2023-04-28T23:23:45.618Z,13.94
2023-04-28T23:26:13.020Z,13.85
2023-04-28T23:28:40.432Z,13.60
2023-04-28T23:31:08.099Z,13.80
2023-04-28T23:33:35.460Z,13.59
2023-04-28T23:36:02.804Z,13.66
2023-04-28T23:38:30.562Z,13.75
2023-04-28T23:40:58.172Z,13.62
2023-04-28T23:43:25.897Z,13.58
2023-04-28T23:45:53.735Z,13.65
2023-04-28T23:48:22.168Z,13.14
2023-04-28T23:50:50.551Z,13.04
2023-04-28T23:53:18.264Z,13.19
2023-04-28T23:55:45.731Z,13.43
2023-04-28T23:58:13.087Z,13.14
